Time;durP1;ratioP1;P1;durP2;ratioP2;P2;SDS_P1;SDS_P2;PMS_P1;PMS_P2;Temp;Humidity;BMP_temperature;BMP_pressure;BME280_temperature;BME280_humidity;BME280_pressure;Samples;Min_cycle;Max_cycle;Signal;HPM_P1;HPM_P2
2023/05/18 00:00:39;;;;;;;4.43;1.20;;;9.10;99.90;;;;;;4968309;28;20033;-72
2023/05/18 00:03:05;;;;;;;5.63;0.90;;;9.00;99.90;;;;;;4958814;28;20040;-71
2023/05/18 00:05:32;;;;;;;3.13;0.77;;;9.00;99.90;;;;;;4956046;28;20045;-73
2023/05/18 00:08:02;;;;;;;3.10;1.02;;;9.10;99.90;;;;;;4937763;28;20039;-73
2023/05/18 00:10:29;;;;;;;4.17;1.10;;;9.10;99.90;;;;;;4942634;28;20043;-72
2023/05/18 00:12:55;;;;;;;5.78;1.08;;;9.20;99.90;;;;;;4946910;28;20037;-72
2023/05/18 00:15:21;;;;;;;3.63;0.93;;;9.10;99.90;;;;;;4965249;28;20030;-72
2023/05/18 00:17:49;;;;;;;3.45;2.00;;;9.10;99.90;;;;;;4956294;28;20137;-72
2023/05/18 00:20:16;;;;;;;2.35;0.95;;;9.10;99.90;;;;;;4963778;28;20106;-73
2023/05/18 00:22:47;;;;;;;1.23;0.63;;;9.00;99.90;;;;;;4951326;28;20035;-72
2023/05/18 00:25:13;;;;;;;1.35;0.85;;;8.90;99.90;;;;;;4937457;28;20039;-72
2023/05/18 00:27:39;;;;;;;10.32;1.48;;;8.90;99.90;;;;;;4937025;28;20054;-72
2023/05/18 00:30:06;;;;;;;7.10;0.63;;;8.80;99.90;;;;;;4949796;28;20501;-72
2023/05/18 00:32:31;;;;;;;6.00;1.80;;;8.80;99.90;;;;;;4949265;28;20055;-72
2023/05/18 00:34:57;;;;;;;1.52;0.95;;;8.80;99.90;;;;;;4964780;28;20079;-72
2023/05/18 00:37:23;;;;;;;1.48;0.95;;;8.70;99.90;;;;;;4960278;28;20051;-72
2023/05/18 00:39:48;;;;;;;1.77;0.90;;;8.70;99.90;;;;;;4964353;28;20093;-72
2023/05/18 00:42:14;;;;;;;5.88;1.33;;;8.70;99.90;;;;;;4960407;28;20082;-72
2023/05/18 00:44:40;;;;;;;3.85;1.00;;;8.60;99.90;;;;;;4964493;28;20423;-72
2023/05/18 00:47:05;;;;;;;2.95;1.00;;;8.60;99.90;;;;;;4961508;28;20055;-72
2023/05/18 00:49:31;;;;;;;3.80;1.25;;;8.50;99.90;;;;;;4955415;28;20438;-72
2023/05/18 00:51:57;;;;;;;5.75;1.50;;;8.50;99.90;;;;;;4962368;28;20046;-71
2023/05/18 00:54:24;;;;;;;7.40;1.73;;;8.40;99.90;;;;;;4962658;28;20039;-71
2023/05/18 00:56:50;;;;;;;3.78;1.38;;;8.40;99.90;;;;;;4948678;29;20180;-71
2023/05/18 00:59:17;;;;;;;2.47;1.05;;;8.30;99.90;;;;;;4960837;28;20439;-74
2023/05/18 01:01:45;;;;;;;5.40;1.05;;;8.30;99.90;;;;;;4949815;28;20050;-73
2023/05/18 01:04:13;;;;;;;2.05;1.27;;;8.30;99.90;;;;;;4953750;28;20109;-71
2023/05/18 01:06:40;;;;;;;1.83;1.20;;;8.30;99.90;;;;;;4940466;28;20058;-71
2023/05/18 01:09:10;;;;;;;2.88;1.23;;;8.20;99.90;;;;;;4956534;28;20039;-70
2023/05/18 01:11:43;;;;;;;2.55;1.35;;;8.20;99.90;;;;;;4943878;29;20089;-71
2023/05/18 01:14:23;;;;;;;2.78;1.30;;;8.10;99.90;;;;;;4943623;29;20039;-72
2023/05/18 01:17:11;;;;;;;7.45;1.40;;;8.10;99.90;;;;;;4933791;29;20028;-72
2023/05/18 01:20:18;;;;;;;10.13;1.42;;;8.10;99.90;;;;;;4951764;28;20038;-71
2023/05/18 01:23:16;;;;;;;2.28;0.98;;;8.00;99.90;;;;;;4954105;28;20109;-72
2023/05/18 01:25:47;;;;;;;6.55;1.08;;;8.00;99.90;;;;;;4958016;28;20035;-72
2023/05/18 01:28:25;;;;;;;1.42;0.77;;;8.00;99.90;;;;;;4952747;28;20035;-72
2023/05/18 01:30:51;;;;;;;3.47;1.10;;;7.90;99.90;;;;;;4957644;28;20034;-72
2023/05/18 01:33:17;;;;;;;1.63;1.17;;;7.80;99.90;;;;;;4952774;28;20030;-71
2023/05/18 01:35:49;;;;;;;0.90;0.75;;;7.80;99.90;;;;;;4963718;28;20058;-72
2023/05/18 01:38:26;;;;;;;1.35;0.65;;;7.80;99.90;;;;;;4957434;28;20046;-71
2023/05/18 01:41:16;;;;;;;5.75;1.88;;;7.80;99.90;;;;;;4957910;28;20027;-72
2023/05/18 01:43:58;;;;;;;4.38;2.00;;;7.70;99.90;;;;;;4953992;28;20171;-73
2023/05/18 01:46:51;;;;;;;2.45;1.17;;;7.70;99.90;;;;;;4953542;28;20027;-72
2023/05/18 01:49:34;;;;;;;7.32;1.25;;;7.70;99.90;;;;;;4958676;28;20134;-72
2023/05/18 01:52:06;;;;;;;6.28;1.25;;;7.70;99.90;;;;;;4962253;28;20036;-73
2023/05/18 01:54:35;;;;;;;3.55;1.00;;;7.70;99.90;;;;;;4962532;28;20031;-72
2023/05/18 01:57:02;;;;;;;2.38;1.15;;;7.60;99.90;;;;;;4946301;29;20476;-72
2023/05/18 01:59:29;;;;;;;2.03;1.10;;;7.60;99.90;;;;;;4961592;28;20034;-72
2023/05/18 02:02:00;;;;;;;4.68;1.08;;;7.70;99.90;;;;;;4943378;29;20126;-72
2023/05/18 02:04:27;;;;;;;4.15;1.65;;;7.70;99.90;;;;;;4959485;28;20381;-72
2023/05/18 02:06:53;;;;;;;4.25;1.52;;;7.60;99.90;;;;;;4964583;28;20500;-72
2023/05/18 02:09:20;;;;;;;5.00;1.20;;;7.60;99.90;;;;;;4960885;28;20396;-73
2023/05/18 02:11:47;;;;;;;3.90;1.40;;;7.60;99.90;;;;;;4965425;28;20563;-71
2023/05/18 02:14:13;;;;;;;2.20;0.77;;;7.50;99.90;;;;;;4958180;28;20038;-71
2023/05/18 02:16:38;;;;;;;1.67;1.13;;;7.40;99.90;;;;;;4953832;28;20039;-71
2023/05/18 02:19:04;;;;;;;1.85;0.63;;;7.50;99.90;;;;;;4959225;28;20082;-71
2023/05/18 02:21:33;;;;;;;5.60;1.60;;;7.50;99.90;;;;;;4971471;28;20165;-71
2023/05/18 02:23:59;;;;;;;1.90;0.73;;;7.40;99.90;;;;;;4960424;28;20035;-71
2023/05/18 02:26:25;;;;;;;1.65;1.15;;;7.50;99.90;;;;;;4956827;28;20117;-71
2023/05/18 02:28:51;;;;;;;2.72;1.20;;;7.60;99.90;;;;;;4957722;28;20391;-72
2023/05/18 02:31:16;;;;;;;1.75;0.80;;;7.60;99.90;;;;;;4956599;28;20039;-73
2023/05/18 02:33:42;;;;;;;3.40;1.63;;;7.60;99.90;;;;;;4955370;28;20036;-72
2023/05/18 02:36:11;;;;;;;4.30;1.40;;;7.60;99.90;;;;;;4967709;28;20456;-72
2023/05/18 02:38:42;;;;;;;16.75;1.77;;;7.60;99.90;;;;;;4958183;28;20095;-73
2023/05/18 02:41:09;;;;;;;;;;;7.60;99.90;;;;;;4954462;28;20109;-72
2023/05/18 02:43:35;;;;;;;3.83;1.15;;;7.50;99.90;;;;;;4957540;28;19922;-73
2023/05/18 02:46:02;;;;;;;1.17;0.82;;;7.40;99.90;;;;;;4969085;28;20399;-72
2023/05/18 02:48:28;;;;;;;6.18;1.70;;;7.40;99.90;;;;;;4959236;28;20035;-73
2023/05/18 02:50:54;;;;;;;5.82;1.27;;;7.40;99.90;;;;;;4968693;28;20027;-73
2023/05/18 02:53:20;;;;;;;2.20;1.00;;;7.40;99.90;;;;;;4957072;28;20031;-73
2023/05/18 02:55:47;;;;;;;3.88;1.40;;;7.40;99.90;;;;;;4961971;28;20031;-73
2023/05/18 02:58:14;;;;;;;4.07;1.45;;;7.40;99.90;;;;;;4950933;28;20035;-73
2023/05/18 03:00:40;;;;;;;4.72;0.90;;;7.40;99.90;;;;;;4962360;28;20126;-73
2023/05/18 03:03:09;;;;;;;8.30;1.45;;;7.30;99.90;;;;;;4945477;28;20046;-73
2023/05/18 03:05:36;;;;;;;7.53;1.30;;;7.30;99.90;;;;;;4960380;28;20030;-73
2023/05/18 03:08:02;;;;;;;4.00;1.63;;;7.10;99.90;;;;;;4952635;28;20054;-71
2023/05/18 03:10:27;;;;;;;7.30;2.28;;;7.10;99.90;;;;;;4963348;28;20078;-71
2023/05/18 03:12:53;;;;;;;3.13;0.82;;;7.00;99.90;;;;;;4954502;28;20039;-71
2023/05/18 03:15:19;;;;;;;5.07;1.40;;;7.00;99.90;;;;;;4956806;28;20407;-71
2023/05/18 03:17:45;;;;;;;1.95;1.02;;;6.90;99.90;;;;;;4951855;28;20026;-71
2023/05/18 03:20:13;;;;;;;5.63;1.92;;;6.90;99.90;;;;;;4960898;28;20634;-71
2023/05/18 03:22:39;;;;;;;4.50;1.23;;;6.80;99.90;;;;;;4956384;28;20045;-72
2023/05/18 03:25:06;;;;;;;9.13;1.65;;;6.80;99.90;;;;;;4956096;28;20043;-72
2023/05/18 03:27:33;;;;;;;6.57;0.68;;;6.80;99.90;;;;;;4964541;28;20026;-71
2023/05/18 03:29:59;;;;;;;4.43;1.40;;;6.70;99.90;;;;;;4956274;28;20045;-72
2023/05/18 03:32:27;;;;;;;2.13;1.63;;;6.70;99.90;;;;;;4964367;28;20034;-70
2023/05/18 03:34:54;;;;;;;5.40;2.75;;;6.60;99.90;;;;;;4964753;28;20042;-71
2023/05/18 03:37:20;;;;;;;3.33;1.15;;;6.60;99.90;;;;;;4954387;28;20030;-71
2023/05/18 03:39:46;;;;;;;3.35;0.63;;;6.50;99.90;;;;;;4952968;28;20684;-71
2023/05/18 03:42:12;;;;;;;3.60;1.42;;;6.50;99.90;;;;;;4976129;23;20061;-69
2023/05/18 03:44:37;;;;;;;4.20;1.27;;;6.40;99.90;;;;;;4973178;28;20027;-69
2023/05/18 03:47:03;;;;;;;4.13;1.45;;;6.40;99.90;;;;;;4973117;28;20038;-69
2023/05/18 03:49:29;;;;;;;1.45;0.98;;;6.40;99.90;;;;;;4964735;28;20030;-70
2023/05/18 03:51:55;;;;;;;5.18;0.98;;;6.40;99.90;;;;;;4962331;28;20492;-69
2023/05/18 03:54:22;;;;;;;3.10;1.45;;;6.40;99.90;;;;;;4957564;28;20027;-70
2023/05/18 03:56:48;;;;;;;4.03;1.80;;;6.30;99.90;;;;;;4953715;28;20085;-70
2023/05/18 03:59:14;;;;;;;2.70;1.10;;;6.30;99.90;;;;;;4963936;28;20027;-69
2023/05/18 04:01:41;;;;;;;1.42;1.17;;;6.30;99.90;;;;;;4948990;28;20214;-70
2023/05/18 04:04:07;;;;;;;5.40;1.42;;;6.30;99.90;;;;;;4957517;28;20494;-70
2023/05/18 04:06:36;;;;;;;2.42;1.40;;;6.30;99.90;;;;;;4970392;28;20518;-71
2023/05/18 04:09:03;;;;;;;6.07;1.65;;;6.30;99.90;;;;;;4964553;28;20035;-70
2023/05/18 04:11:32;;;;;;;3.50;1.48;;;6.30;99.90;;;;;;4958877;28;20114;-70
2023/05/18 04:13:59;;;;;;;4.10;1.13;;;6.40;99.90;;;;;;4961396;28;20039;-70
2023/05/18 04:16:26;;;;;;;11.10;1.50;;;6.40;99.90;;;;;;4952613;28;20036;-70
2023/05/18 04:18:52;;;;;;;4.13;1.73;;;6.40;99.90;;;;;;4961022;28;20031;-70
2023/05/18 04:21:18;;;;;;;1.52;0.90;;;6.40;99.90;;;;;;4967186;28;20035;-70
2023/05/18 04:23:46;;;;;;;3.92;2.28;;;6.30;99.90;;;;;;4966349;28;20027;-70
2023/05/18 04:26:12;;;;;;;3.45;1.35;;;6.30;99.90;;;;;;4939154;28;20061;-70
2023/05/18 04:28:38;;;;;;;2.75;1.73;;;6.40;99.90;;;;;;4959345;28;20030;-70
2023/05/18 04:31:04;;;;;;;4.00;1.20;;;6.40;99.90;;;;;;4957536;28;20043;-70
2023/05/18 04:33:31;;;;;;;1.83;1.10;;;6.40;99.90;;;;;;4960733;28;20035;-70
2023/05/18 04:35:58;;;;;;;6.53;1.90;;;6.50;99.90;;;;;;4965432;28;20050;-71
2023/05/18 04:38:24;;;;;;;5.28;1.33;;;6.40;99.90;;;;;;4961675;28;20125;-70
2023/05/18 04:40:51;;;;;;;2.53;1.35;;;6.50;99.90;;;;;;4952630;28;20023;-69
2023/05/18 04:43:17;;;;;;;8.23;2.13;;;6.60;99.90;;;;;;4957817;28;20046;-69
2023/05/18 04:45:49;;;;;;;2.47;1.25;;;6.60;99.90;;;;;;4963847;28;20117;-70
2023/05/18 04:48:16;;;;;;;1.77;1.23;;;6.70;99.90;;;;;;4962732;28;20065;-70
2023/05/18 04:50:42;;;;;;;5.10;1.40;;;6.70;99.90;;;;;;4963670;28;20244;-70
2023/05/18 04:53:11;;;;;;;2.58;1.50;;;6.80;99.90;;;;;;4958980;28;20451;-70
2023/05/18 04:55:37;;;;;;;1.23;0.90;;;6.90;99.90;;;;;;4956339;28;20031;-70
2023/05/18 04:58:03;;;;;;;13.27;2.13;;;7.00;99.90;;;;;;4959407;28;20085;-71
2023/05/18 05:00:30;;;;;;;5.88;1.60;;;7.10;99.90;;;;;;4960180;28;20067;-71
2023/05/18 05:02:56;;;;;;;9.95;1.60;;;7.20;99.90;;;;;;4958054;28;20030;-70
2023/05/18 05:05:24;;;;;;;2.35;1.20;;;7.30;99.90;;;;;;4963842;28;20495;-70
2023/05/18 05:07:51;;;;;;;3.28;1.88;;;7.30;99.90;;;;;;4962175;28;20035;-71
2023/05/18 05:10:18;;;;;;;5.88;1.50;;;7.40;99.90;;;;;;4960365;28;20023;-70
2023/05/18 05:12:44;;;;;;;3.58;1.08;;;7.40;99.90;;;;;;4955214;28;20028;-70
2023/05/18 05:15:10;;;;;;;7.30;1.63;;;7.50;99.90;;;;;;4962290;28;20049;-70
2023/05/18 05:17:36;;;;;;;5.60;1.33;;;7.60;99.90;;;;;;4963271;28;20047;-74
2023/05/18 05:20:03;;;;;;;4.90;1.13;;;7.60;99.90;;;;;;4962118;28;20041;-72
2023/05/18 05:22:29;;;;;;;3.30;1.73;;;7.70;99.90;;;;;;4960412;28;20046;-74
2023/05/18 05:24:54;;;;;;;3.53;1.15;;;7.70;99.90;;;;;;4960761;28;20035;-72
2023/05/18 05:27:21;;;;;;;2.63;1.30;;;7.80;99.90;;;;;;4962879;28;20035;-72
2023/05/18 05:29:49;;;;;;;3.05;1.45;;;7.90;99.90;;;;;;4961339;28;20130;-72
2023/05/18 05:32:15;;;;;;;2.25;1.13;;;8.00;99.90;;;;;;4951357;28;20109;-72
2023/05/18 05:34:45;;;;;;;5.57;1.23;;;8.00;99.90;;;;;;4946246;28;20062;-71
2023/05/18 05:37:12;;;;;;;4.13;1.00;;;8.20;99.90;;;;;;4963238;28;20031;-70
2023/05/18 05:39:37;;;;;;;3.42;1.58;;;8.20;99.90;;;;;;4965067;28;20039;-70
2023/05/18 05:42:04;;;;;;;3.97;1.15;;;8.40;99.90;;;;;;4951511;28;20039;-71
2023/05/18 05:44:30;;;;;;;5.95;1.98;;;8.50;99.90;;;;;;4960135;28;20023;-72
2023/05/18 05:46:56;;;;;;;5.63;1.65;;;8.60;99.90;;;;;;4964470;28;20034;-72
2023/05/18 05:49:21;;;;;;;9.07;2.33;;;8.70;99.90;;;;;;4964697;28;20023;-72
2023/05/18 05:51:47;;;;;;;5.68;1.52;;;8.90;99.90;;;;;;4969960;28;20086;-72
2023/05/18 05:54:13;;;;;;;3.40;1.23;;;9.20;99.90;;;;;;4952860;28;20038;-73
2023/05/18 05:56:39;;;;;;;1.88;1.02;;;9.40;99.90;;;;;;4951179;28;20461;-74
2023/05/18 05:59:05;;;;;;;3.08;1.77;;;9.60;99.90;;;;;;4960360;28;20103;-72
2023/05/18 06:01:31;;;;;;;5.85;1.08;;;9.90;99.90;;;;;;4955200;28;20042;-71
2023/05/18 06:03:57;;;;;;;2.40;1.13;;;10.00;99.90;;;;;;4963816;28;20074;-70
2023/05/18 06:06:22;;;;;;;2.72;1.25;;;10.20;99.90;;;;;;4971183;28;20065;-70
2023/05/18 06:08:48;;;;;;;1.27;0.80;;;10.30;99.90;;;;;;4963500;28;20031;-70
2023/05/18 06:11:14;;;;;;;7.53;1.23;;;10.40;99.90;;;;;;4962422;28;20038;-70
2023/05/18 06:13:40;;;;;;;3.00;1.02;;;10.50;99.90;;;;;;4963685;28;20038;-70
2023/05/18 06:16:05;;;;;;;2.17;1.02;;;10.60;99.90;;;;;;4971203;28;20039;-70
2023/05/18 06:18:31;;;;;;;3.65;0.88;;;10.60;99.90;;;;;;4963144;28;20031;-70
2023/05/18 06:20:57;;;;;;;3.67;1.10;;;10.70;99.90;;;;;;4969877;28;20030;-70
2023/05/18 06:23:22;;;;;;;7.43;1.10;;;10.80;99.90;;;;;;4960068;28;20043;-70
2023/05/18 06:25:49;;;;;;;4.13;0.90;;;11.00;99.90;;;;;;4961793;28;20035;-70
2023/05/18 06:28:14;;;;;;;9.20;0.85;;;11.00;99.90;;;;;;4958219;28;20031;-71
2023/05/18 06:30:40;;;;;;;2.15;1.33;;;11.10;99.90;;;;;;4962809;28;20034;-71
2023/05/18 06:33:07;;;;;;;6.00;1.25;;;11.20;99.90;;;;;;4962109;28;20478;-71
2023/05/18 06:35:35;;;;;;;1.38;0.50;;;11.20;99.90;;;;;;4957968;28;20039;-70
2023/05/18 06:38:01;;;;;;;5.75;1.92;;;11.30;99.90;;;;;;4975289;28;20027;-70
2023/05/18 06:40:26;;;;;;;2.83;0.93;;;11.40;99.90;;;;;;4967061;28;20479;-70
2023/05/18 06:42:52;;;;;;;2.40;0.98;;;11.50;99.90;;;;;;4965671;28;20031;-71
2023/05/18 06:45:18;;;;;;;5.00;1.48;;;11.50;99.90;;;;;;4966694;28;20479;-70
2023/05/18 06:47:45;;;;;;;3.13;1.02;;;11.60;99.90;;;;;;4965981;28;20037;-70
2023/05/18 06:50:10;;;;;;;7.60;1.00;;;11.60;99.90;;;;;;4949020;28;20030;-70
2023/05/18 06:52:37;;;;;;;6.90;1.33;;;11.70;99.90;;;;;;4965381;28;20037;-70
2023/05/18 06:55:04;;;;;;;2.80;0.68;;;11.80;99.90;;;;;;4961759;28;20027;-71
2023/05/18 06:57:30;;;;;;;5.72;1.00;;;11.90;99.90;;;;;;4957203;28;20031;-70
2023/05/18 06:59:56;;;;;;;2.08;0.90;;;11.90;99.90;;;;;;4960878;28;20031;-70
2023/05/18 07:02:22;;;;;;;5.40;0.82;;;11.90;99.90;;;;;;4955934;28;20086;-70
2023/05/18 07:04:48;;;;;;;2.65;0.70;;;12.00;99.90;;;;;;4964586;28;20110;-70
2023/05/18 07:07:15;;;;;;;6.57;2.25;;;12.10;99.90;;;;;;4961552;28;20038;-71
2023/05/18 07:09:44;;;;;;;4.72;1.17;;;12.20;99.90;;;;;;4964129;28;20571;-71
2023/05/18 07:12:11;;;;;;;4.60;1.88;;;12.30;99.90;;;;;;4930044;29;20042;-71
2023/05/18 07:14:37;;;;;;;8.25;1.20;;;12.40;99.90;;;;;;4953874;28;20117;-70
2023/05/18 07:17:05;;;;;;;8.18;1.27;;;12.40;99.90;;;;;;4950135;28;20046;-67
2023/05/18 07:19:33;;;;;;;5.78;2.35;;;12.40;99.90;;;;;;4963300;28;20060;-69
2023/05/18 07:21:59;;;;;;;4.72;1.27;;;12.50;99.90;;;;;;4966968;28;20043;-73
2023/05/18 07:24:25;;;;;;;1.67;0.85;;;12.60;99.90;;;;;;4965866;28;20035;-70
2023/05/18 07:26:51;;;;;;;2.08;0.80;;;12.60;99.90;;;;;;4953997;28;20031;-70
2023/05/18 07:29:17;;;;;;;2.67;0.95;;;12.70;99.90;;;;;;4965055;28;20038;-70
2023/05/18 07:31:42;;;;;;;4.22;0.90;;;12.80;99.90;;;;;;4953751;28;20059;-69
2023/05/18 07:34:08;;;;;;;9.20;1.92;;;12.90;99.90;;;;;;4962237;28;20031;-68
2023/05/18 07:36:34;;;;;;;3.35;0.98;;;12.90;99.90;;;;;;4950697;28;20070;-70
2023/05/18 07:39:00;;;;;;;6.63;1.40;;;13.00;99.90;;;;;;4962053;28;20035;-69
2023/05/18 07:41:27;;;;;;;4.57;0.90;;;13.20;99.90;;;;;;4969042;28;20034;-71
2023/05/18 07:43:53;;;;;;;1.02;0.60;;;13.30;99.40;;;;;;4966347;28;20027;-69
2023/05/18 07:46:19;;;;;;;6.60;1.25;;;13.40;99.10;;;;;;4968069;28;20097;-69
2023/05/18 07:48:45;;;;;;;3.85;1.38;;;13.50;98.90;;;;;;4967320;28;20034;-70
2023/05/18 07:51:11;;;;;;;11.13;1.45;;;13.60;99.00;;;;;;4967754;28;20503;-73
2023/05/18 07:53:39;;;;;;;5.75;1.60;;;13.70;98.60;;;;;;4975177;28;20038;-71
2023/05/18 07:56:07;;;;;;;1.80;0.82;;;13.80;98.60;;;;;;4957107;28;20039;-73
2023/05/18 07:58:34;;;;;;;3.85;1.23;;;13.80;98.80;;;;;;4958011;28;20027;-72
2023/05/18 08:01:01;;;;;;;4.55;1.73;;;13.90;98.30;;;;;;4958694;28;20501;-71
2023/05/18 08:03:26;;;;;;;3.25;1.38;;;14.00;97.90;;;;;;4960297;28;20043;-72
2023/05/18 08:05:52;;;;;;;4.53;1.00;;;14.10;97.90;;;;;;4967661;28;20519;-71
2023/05/18 08:08:19;;;;;;;2.97;1.17;;;14.10;97.90;;;;;;4959372;28;20028;-71
2023/05/18 08:10:45;;;;;;;2.97;1.25;;;14.30;97.70;;;;;;4954554;28;20035;-72
2023/05/18 08:13:11;;;;;;;4.95;1.00;;;14.40;97.40;;;;;;4957258;28;20027;-73
2023/05/18 08:15:39;;;;;;;4.85;1.48;;;14.40;96.90;;;;;;4965124;28;20022;-71
2023/05/18 08:18:05;;;;;;;6.97;1.52;;;14.50;97.20;;;;;;4939545;28;20039;-70
2023/05/18 08:20:31;;;;;;;4.63;1.30;;;14.60;96.60;;;;;;4963337;28;20097;-72
2023/05/18 08:22:56;;;;;;;4.40;0.95;;;14.60;96.70;;;;;;4959592;28;20492;-67
2023/05/18 08:25:24;;;;;;;7.03;1.05;;;14.70;97.00;;;;;;4961369;28;20530;-72
2023/05/18 08:27:50;;;;;;;2.00;1.08;;;14.80;96.90;;;;;;4954747;28;20402;-72
2023/05/18 08:30:20;;;;;;;8.52;2.97;;;14.90;96.60;;;;;;4960851;28;20031;-71
2023/05/18 08:32:49;;;;;;;4.03;1.00;;;14.90;96.80;;;;;;4956197;28;20470;-72
2023/05/18 08:35:15;;;;;;;6.60;1.65;;;15.00;96.10;;;;;;4961003;28;20672;-71
2023/05/18 08:37:40;;;;;;;7.88;1.85;;;15.10;96.00;;;;;;4963596;28;20122;-70
2023/05/18 08:40:08;;;;;;;2.42;0.70;;;15.00;96.00;;;;;;4964541;28;20434;-71
2023/05/18 08:42:45;;;;;;;2.78;1.42;;;15.10;96.10;;;;;;4963591;28;20073;-71
2023/05/18 08:45:31;;;;;;;5.25;0.95;;;15.40;96.10;;;;;;4964226;28;20047;-71
2023/05/18 08:48:00;;;;;;;5.22;1.48;;;15.50;95.70;;;;;;4957484;28;20113;-69
2023/05/18 08:50:30;;;;;;;3.00;1.00;;;15.50;95.60;;;;;;4964079;28;20040;-69
2023/05/18 08:53:02;;;;;;;3.95;0.90;;;15.70;95.30;;;;;;4960036;28;20046;-71
2023/05/18 08:55:29;;;;;;;2.78;1.00;;;15.80;95.00;;;;;;4960818;28;20432;-71
2023/05/18 08:57:58;;;;;;;15.55;1.17;;;15.90;94.80;;;;;;4955081;28;20102;-71
2023/05/18 09:00:24;;;;;;;2.10;1.40;;;15.90;94.70;;;;;;4960364;28;20035;-71
2023/05/18 09:02:50;;;;;;;4.10;0.70;;;15.80;94.20;;;;;;4957057;28;20131;-71
2023/05/18 09:05:19;;;;;;;3.78;0.82;;;15.80;93.90;;;;;;4962443;28;20087;-69
2023/05/18 09:07:45;;;;;;;2.05;0.70;;;15.70;93.80;;;;;;4967896;28;20023;-71
2023/05/18 09:10:14;;;;;;;4.35;1.08;;;15.70;94.20;;;;;;4961268;28;20031;-70
2023/05/18 09:12:42;;;;;;;1.77;0.82;;;16.00;94.20;;;;;;4956120;28;20110;-71
2023/05/18 09:15:10;;;;;;;7.55;0.98;;;16.40;93.50;;;;;;4964048;28;20035;-69
2023/05/18 09:17:36;;;;;;;4.50;1.27;;;16.60;92.90;;;;;;4969241;28;20037;-70
2023/05/18 09:20:05;;;;;;;1.88;0.68;;;16.50;92.00;;;;;;4962347;28;20038;-73
2023/05/18 09:22:34;;;;;;;7.57;1.13;;;16.50;92.10;;;;;;4963203;28;20042;-72
2023/05/18 09:25:04;;;;;;;3.65;0.50;;;16.80;91.80;;;;;;4961352;28;20038;-72
2023/05/18 09:27:30;;;;;;;7.10;1.20;;;16.70;90.80;;;;;;4937595;28;20048;-73
2023/05/18 09:29:59;;;;;;;3.72;1.13;;;16.40;91.70;;;;;;4959631;28;20306;-73
2023/05/18 09:32:25;;;;;;;4.97;1.30;;;16.80;91.50;;;;;;4940943;28;20082;-72
2023/05/18 09:34:52;;;;;;;8.95;1.17;;;17.20;90.90;;;;;;4954918;28;20054;-71
2023/05/18 09:37:21;;;;;;;1.33;0.80;;;17.30;90.70;;;;;;4962490;28;20033;-71
2023/05/18 09:40:04;;;;;;;4.25;0.77;;;17.30;90.30;;;;;;4967107;28;20041;-68
2023/05/18 09:42:42;;;;;;;6.05;1.15;;;17.40;90.70;;;;;;4967316;23;20470;-73
2023/05/18 09:45:22;;;;;;;2.20;0.70;;;17.70;89.00;;;;;;4942113;29;20499;-74
2023/05/18 09:47:49;;;;;;;6.07;1.37;;;17.70;90.10;;;;;;4943275;28;20101;-74
2023/05/18 09:50:19;;;;;;;3.58;1.17;;;18.00;89.10;;;;;;4936967;28;20043;-69
2023/05/18 09:52:48;;;;;;;1.42;0.90;;;18.20;87.60;;;;;;4943448;28;20039;-71
2023/05/18 09:55:18;;;;;;;2.88;1.15;;;18.40;86.70;;;;;;4946367;28;20031;-73
2023/05/18 09:57:47;;;;;;;2.53;1.17;;;18.40;83.80;;;;;;4951735;28;20090;-71
2023/05/18 10:00:15;;;;;;;3.40;0.80;;;18.30;83.40;;;;;;4940944;28;20043;-71
2023/05/18 10:02:47;;;;;;;3.40;1.02;;;18.30;84.40;;;;;;4958146;28;20059;-73
2023/05/18 10:05:22;;;;;;;4.47;1.08;;;18.30;85.70;;;;;;4944535;28;20059;-72
2023/05/18 10:07:50;;;;;;;3.17;1.13;;;18.60;85.00;;;;;;4940877;29;20082;-72
2023/05/18 10:10:21;;;;;;;2.17;1.00;;;19.00;83.50;;;;;;4945029;28;20043;-72
2023/05/18 10:12:49;;;;;;;;;;;18.90;81.50;;;;;;4951424;29;20039;-71
2023/05/18 10:15:18;;;;;;;5.68;0.88;;;18.90;81.40;;;;;;4945608;28;20342;-75
2023/05/18 10:17:47;;;;;;;5.50;1.05;;;18.80;81.10;;;;;;4941949;28;20031;-72
2023/05/18 10:20:21;;;;;;;3.65;1.13;;;19.00;80.60;;;;;;4950202;28;20127;-73
2023/05/18 10:22:48;;;;;;;7.30;0.77;;;19.00;81.50;;;;;;4957449;28;20122;-72
2023/05/18 10:25:19;;;;;;;1.33;0.63;;;18.70;82.80;;;;;;4954050;28;20041;-55
2023/05/18 10:27:48;;;;;;;3.20;1.38;;;18.50;82.60;;;;;;4950524;28;20055;-53
2023/05/18 10:30:16;;;;;;;4.70;1.10;;;18.90;83.40;;;;;;4951851;28;20470;-74
2023/05/18 10:32:42;;;;;;;5.05;1.20;;;19.10;83.50;;;;;;4950031;28;20742;-72
2023/05/18 10:35:10;;;;;;;2.33;1.30;;;19.50;79.70;;;;;;4951703;28;20062;-72
2023/05/18 10:37:40;;;;;;;1.38;0.93;;;19.50;78.00;;;;;;4952100;28;20491;-72
2023/05/18 10:40:08;;;;;;;4.50;1.13;;;19.30;77.90;;;;;;4954183;29;20192;-72
2023/05/18 10:42:35;;;;;;;2.05;1.20;;;19.40;78.30;;;;;;4952180;28;20031;-71
2023/05/18 10:45:02;;;;;;;2.20;1.10;;;19.40;77.80;;;;;;4953972;29;20403;-72
2023/05/18 10:47:28;;;;;;;3.90;1.00;;;19.80;77.80;;;;;;4952383;28;20476;-72
2023/05/18 10:49:54;;;;;;;5.53;1.10;;;19.70;76.60;;;;;;4955047;28;20037;-73
2023/05/18 10:52:20;;;;;;;5.57;1.63;;;19.40;77.40;;;;;;4953248;28;20032;-73
2023/05/18 10:54:49;;;;;;;6.80;1.40;;;19.70;76.80;;;;;;4953722;29;20506;-73
2023/05/18 10:57:19;;;;;;;2.42;0.77;;;20.10;77.20;;;;;;4967604;28;20034;-73
2023/05/18 10:59:46;;;;;;;2.15;0.82;;;20.00;74.80;;;;;;4945551;29;20417;-72
2023/05/18 11:02:16;;;;;;;9.90;1.35;;;20.20;76.00;;;;;;4951856;28;20035;-73
2023/05/18 11:04:42;;;;;;;2.23;0.77;;;20.20;75.90;;;;;;4953534;29;20403;-73
2023/05/18 11:07:12;;;;;;;5.75;1.80;;;20.00;75.70;;;;;;4952476;28;20035;-73
2023/05/18 11:09:43;;;;;;;3.88;1.13;;;20.30;74.40;;;;;;4947125;29;20035;-73
2023/05/18 11:12:13;;;;;;;5.53;1.88;;;20.20;74.30;;;;;;4938276;28;20035;-74
2023/05/18 11:14:53;;;;;;;1.30;0.98;;;20.40;74.20;;;;;;4946185;29;20443;-74
2023/05/18 11:17:25;;;;;;;1.77;1.23;;;20.10;75.50;;;;;;4953030;28;20034;-73
2023/05/18 11:20:12;;;;;;;6.65;1.20;;;19.90;75.70;;;;;;4954154;28;20114;-71
2023/05/18 11:22:56;;;;;;;6.32;1.77;;;20.50;73.90;;;;;;4952455;28;20098;-73
2023/05/18 11:25:25;;;;;;;1.73;0.70;;;20.90;73.40;;;;;;4954597;29;20054;-73
2023/05/18 11:28:00;;;;;;;6.95;1.20;;;20.60;72.30;;;;;;4952470;28;20031;-73
2023/05/18 11:30:32;;;;;;;4.47;1.23;;;21.00;71.60;;;;;;4954027;28;20031;-73
2023/05/18 11:33:24;;;;;;;2.05;1.25;;;20.60;69.90;;;;;;4964768;28;20208;-73
2023/05/18 11:36:07;;;;;;;3.03;0.93;;;19.60;72.50;;;;;;4961873;28;20069;-73
2023/05/18 11:39:10;;;;;;;4.90;1.25;;;20.00;72.20;;;;;;4952377;28;20363;-73
2023/05/18 11:41:40;;;;;;;4.43;1.38;;;20.20;72.60;;;;;;4952809;29;20479;-73
2023/05/18 11:44:19;;;;;;;2.97;1.10;;;20.60;72.10;;;;;;4945208;28;20035;-73
2023/05/18 11:46:57;;;;;;;3.78;0.63;;;20.30;70.90;;;;;;4933901;29;20480;-73
2023/05/18 11:49:35;;;;;;;3.10;0.75;;;20.10;69.90;;;;;;4952436;29;20065;-73
2023/05/18 11:52:11;;;;;;;2.50;0.80;;;20.60;70.30;;;;;;4953721;28;20106;-73
2023/05/18 11:54:57;;;;;;;6.18;0.70;;;20.30;70.70;;;;;;4955467;28;20045;-72
2023/05/18 11:57:34;;;;;;;4.85;0.98;;;20.60;69.40;;;;;;4951696;28;20173;-72
2023/05/18 12:00:07;;;;;;;4.35;0.85;;;20.70;69.30;;;;;;4948902;29;20042;-72
2023/05/18 12:02:34;;;;;;;5.22;1.50;;;20.70;71.20;;;;;;4964585;28;20065;-73
2023/05/18 12:05:01;;;;;;;1.60;0.88;;;20.90;69.50;;;;;;4952443;28;20037;-73
2023/05/18 12:07:29;;;;;;;3.53;1.35;;;20.90;70.60;;;;;;4934798;29;20035;-73
2023/05/18 12:10:02;;;;;;;3.67;1.10;;;20.80;70.10;;;;;;4952089;28;20050;-72
2023/05/18 12:12:28;;;;;;;5.68;1.48;;;21.40;71.30;;;;;;4951803;28;20055;-73
2023/05/18 12:14:58;;;;;;;3.33;1.25;;;21.90;68.10;;;;;;4952509;29;20455;-72
2023/05/18 12:17:37;;;;;;;3.28;1.08;;;21.70;69.10;;;;;;4950405;28;20039;-73
2023/05/18 12:20:10;;;;;;;1.55;0.88;;;21.50;67.90;;;;;;4952023;29;20380;-72
2023/05/18 12:22:40;;;;;;;4.72;1.13;;;21.60;69.10;;;;;;4951674;28;20035;-72
2023/05/18 12:25:07;;;;;;;4.60;0.93;;;21.90;70.30;;;;;;4953077;28;20067;-72
2023/05/18 12:27:39;;;;;;;2.55;1.10;;;21.80;67.20;;;;;;4964276;28;20872;-73
2023/05/18 12:30:12;;;;;;;2.83;0.65;;;21.90;67.60;;;;;;4947846;29;20034;-72
2023/05/18 12:32:42;;;;;;;4.18;1.40;;;21.80;66.90;;;;;;4951577;28;20043;-73
2023/05/18 12:35:08;;;;;;;2.63;0.60;;;21.80;67.00;;;;;;4952745;28;20501;-72
2023/05/18 12:37:44;;;;;;;4.03;0.60;;;21.90;66.70;;;;;;4964232;28;20039;-72
2023/05/18 12:40:16;;;;;;;2.75;1.20;;;21.70;68.10;;;;;;4951610;29;20058;-74
2023/05/18 12:42:59;;;;;;;8.60;1.25;;;22.20;67.20;;;;;;4949774;28;20043;-73
2023/05/18 12:45:30;;;;;;;3.63;1.13;;;22.00;70.10;;;;;;4951815;29;20244;-74
2023/05/18 12:48:02;;;;;;;6.07;1.00;;;22.10;67.10;;;;;;4951544;28;20078;-73
2023/05/18 12:50:28;;;;;;;2.80;0.90;;;21.70;65.90;;;;;;4952673;28;20031;-71
2023/05/18 12:52:55;;;;;;;5.82;1.00;;;21.40;66.00;;;;;;4952321;28;20480;-72
2023/05/18 12:55:22;;;;;;;1.98;0.50;;;22.00;67.90;;;;;;4937671;29;20042;-73
2023/05/18 12:58:11;;;;;;;6.20;1.73;;;22.10;66.30;;;;;;4949230;28;20447;-73
2023/05/18 13:00:37;;;;;;;3.88;0.90;;;22.60;66.00;;;;;;4944902;29;20039;-72